Time;durP1;ratioP1;P1;durP2;ratioP2;P2;SDS_P1;SDS_P2;PMS_P1;PMS_P2;Temp;Humidity;BMP_temperature;BMP_pressure;BME280_temperature;BME280_humidity;BME280_pressure;Samples;Min_cycle;Max_cycle;Signal;HPM_P1;HPM_P2
2021/08/18 00:02:23;;;;;;;9.00;6.13;;;;;;;24.23;65.48;99976.41;4993125;28;20038;-65
2021/08/18 00:04:48;;;;;;;9.95;7.10;;;;;;;23.66;68.11;99983.13;4993631;28;20036;-67
2021/08/18 00:07:14;;;;;;;11.13;6.05;;;;;;;23.70;67.83;99971.63;4992799;28;20397;-67
2021/08/18 00:09:39;;;;;;;10.82;7.28;;;;;;;24.08;66.84;99954.88;4992690;28;20026;-65
2021/08/18 00:12:06;;;;;;;9.40;6.93;;;;;;;24.04;65.90;99912.75;4992707;28;20519;-67
2021/08/18 00:14:33;;;;;;;8.75;6.40;;;;;;;24.42;65.22;99946.88;4992991;28;20027;-71
2021/08/18 00:17:00;;;;;;;12.43;6.70;;;;;;;24.58;64.54;99939.38;4992409;28;20105;-64
2021/08/18 00:19:25;;;;;;;9.85;6.68;;;;;;;24.74;63.84;99936.31;4991678;28;20030;-65
2021/08/18 00:21:51;;;;;;;11.00;7.15;;;;;;;24.96;63.31;99945.31;4992902;28;20027;-65
2021/08/18 00:24:16;;;;;;;10.93;8.07;;;;;;;24.43;65.49;99955.66;4992875;28;20031;-67
2021/08/18 00:26:42;;;;;;;13.35;7.47;;;;;;;24.00;66.97;99965.59;4992527;28;20134;-65
2021/08/18 00:29:07;;;;;;;11.73;7.90;;;;;;;23.78;67.13;99946.84;4992786;28;20027;-66
2021/08/18 00:31:34;;;;;;;9.20;6.82;;;;;;;24.02;66.77;99969.94;4992576;28;20477;-67
2021/08/18 00:34:00;;;;;;;10.27;6.95;;;;;;;24.30;66.17;99968.31;4995920;28;20382;-65
2021/08/18 00:36:25;;;;;;;11.35;7.85;;;;;;;24.00;65.70;99923.41;4996380;28;20085;-67
2021/08/18 00:38:50;;;;;;;10.18;7.40;;;;;;;24.34;65.58;99978.75;4996191;28;20043;-65
2021/08/18 00:41:16;;;;;;;8.85;7.55;;;;;;;24.28;65.42;99971.00;4995997;28;20051;-67
2021/08/18 00:43:42;;;;;;;11.50;7.68;;;;;;;24.08;66.45;99971.56;4995222;28;20117;-67
2021/08/18 00:46:08;;;;;;;9.20;7.20;;;;;;;24.14;65.97;99962.59;4996162;28;20058;-67
2021/08/18 00:48:33;;;;;;;11.23;7.90;;;;;;;24.14;66.25;99973.13;4994498;28;20125;-65
2021/08/18 00:51:00;;;;;;;9.82;7.82;;;;;;;24.14;66.30;99952.94;4995786;28;20113;-66
2021/08/18 00:53:25;;;;;;;10.18;8.30;;;;;;;24.32;65.91;99948.91;4995673;28;20049;-67
2021/08/18 00:55:51;;;;;;;12.30;8.45;;;;;;;24.26;64.87;99924.47;4994439;28;20030;-66
2021/08/18 00:58:16;;;;;;;12.30;8.20;;;;;;;24.28;65.23;99939.34;4954694;29;20050;-67
2021/08/18 01:00:42;;;;;;;11.63;8.13;;;;;;;24.37;65.44;99935.59;4955356;29;20035;-67
2021/08/18 01:03:08;;;;;;;13.02;9.10;;;;;;;24.49;65.01;99937.00;4954994;29;20118;-65
2021/08/18 01:05:33;;;;;;;11.10;8.85;;;;;;;24.58;64.90;99922.69;4954533;29;20035;-66
2021/08/18 01:08:00;;;;;;;11.15;9.30;;;;;;;24.60;64.79;99920.84;4955057;29;20082;-64
2021/08/18 01:10:33;;;;;;;12.15;9.15;;;;;;;24.52;65.19;99918.44;4954710;29;20027;-67
2021/08/18 01:12:59;;;;;;;15.10;9.15;;;;;;;24.33;66.06;99889.09;4954358;28;20043;-64
2021/08/18 01:15:26;;;;;;;13.55;9.60;;;;;;;24.48;65.83;99879.88;4954592;29;20099;-66
2021/08/18 01:17:55;;;;;;;15.13;9.10;;;;;;;24.71;65.79;99917.00;4954861;29;20079;-67
2021/08/18 01:20:23;;;;;;;20.02;9.82;;;;;;;24.78;65.70;99920.31;4954795;29;20459;-66
2021/08/18 01:22:50;;;;;;;21.25;9.38;;;;;;;24.85;65.56;99918.38;4954405;29;20410;-69
2021/08/18 01:25:16;;;;;;;19.92;10.10;;;;;;;24.74;66.92;99896.72;4954158;29;20023;-67
2021/08/18 01:27:48;;;;;;;18.05;10.30;;;;;;;24.68;67.80;99917.09;4954047;29;20504;-66
2021/08/18 01:30:15;;;;;;;15.55;10.43;;;;;;;24.35;69.01;99925.09;4991556;28;20042;-67
2021/08/18 01:32:43;;;;;;;15.65;9.63;;;;;;;24.23;68.80;99885.88;4994523;28;20394;-68
2021/08/18 01:35:24;;;;;;;15.93;9.25;;;;;;;24.29;68.42;99903.28;4995281;28;20030;-65
2021/08/18 01:37:50;;;;;;;14.27;8.90;;;;;;;24.31;68.69;99891.78;4995507;28;20029;-68
2021/08/18 01:40:16;;;;;;;14.27;8.60;;;;;;;24.41;67.64;99896.78;4995697;28;20469;-64
2021/08/18 01:42:44;;;;;;;13.50;8.82;;;;;;;24.40;67.83;99880.09;4994868;28;20084;-67
2021/08/18 01:45:11;;;;;;;11.40;9.27;;;;;;;24.25;67.92;99855.03;4994376;28;20026;-65
2021/08/18 01:47:37;;;;;;;14.55;9.35;;;;;;;24.34;68.34;99881.13;4995232;28;20458;-67
2021/08/18 01:50:03;;;;;;;13.32;9.50;;;;;;;24.32;69.22;99887.38;4994998;28;20034;-67
2021/08/18 01:52:28;;;;;;;12.30;9.45;;;;;;;24.28;69.19;99896.28;4994886;28;20038;-65
2021/08/18 01:54:54;;;;;;;13.68;10.05;;;;;;;24.28;69.38;99886.59;4994353;28;20456;-65
2021/08/18 01:57:20;;;;;;;12.35;10.07;;;;;;;24.13;69.19;99887.03;4995132;28;20033;-67
2021/08/18 01:59:45;;;;;;;14.35;9.55;;;;;;;24.07;69.21;99869.63;4994541;28;20254;-68
2021/08/18 02:02:11;;;;;;;14.63;9.15;;;;;;;24.09;69.21;99878.34;4993780;28;20492;-65
2021/08/18 02:04:36;;;;;;;11.88;9.15;;;;;;;24.06;68.72;99875.78;4994436;28;20041;-70
2021/08/18 02:07:03;;;;;;;18.33;9.10;;;;;;;24.10;68.57;99880.09;4994938;28;20030;-67
2021/08/18 02:09:28;;;;;;;17.77;9.23;;;;;;;23.90;69.35;99880.59;4994290;28;20026;-64
2021/08/18 02:11:54;;;;;;;14.88;9.25;;;;;;;23.83;69.82;99884.31;4994595;28;20465;-65
2021/08/18 02:14:19;;;;;;;11.52;9.48;;;;;;;23.66;70.98;99890.88;4994226;28;20045;-67
2021/08/18 02:16:45;;;;;;;10.93;8.45;;;;;;;23.43;71.88;99887.09;4994501;28;20105;-67
2021/08/18 02:19:11;;;;;;;12.63;9.18;;;;;;;23.22;72.62;99856.03;4994164;28;20018;-65
2021/08/18 02:21:36;;;;;;;13.18;9.65;;;;;;;23.17;73.74;99894.78;4994341;28;20062;-67
2021/08/18 02:24:02;;;;;;;11.68;9.35;;;;;;;23.17;72.93;99873.72;4994618;28;20030;-66
2021/08/18 02:26:27;;;;;;;12.40;9.55;;;;;;;23.62;71.08;99889.25;4994006;28;20105;-67
2021/08/18 02:28:53;;;;;;;12.35;9.27;;;;;;;23.73;70.76;99887.19;4994205;28;20027;-66
2021/08/18 02:31:18;;;;;;;11.88;9.23;;;;;;;23.90;69.92;99889.38;4994190;28;20113;-67
2021/08/18 02:33:44;;;;;;;13.63;9.07;;;;;;;23.85;69.64;99893.03;4994186;28;20045;-67
2021/08/18 02:36:09;;;;;;;13.80;9.10;;;;;;;23.83;69.99;99889.59;4993563;28;20077;-65
2021/08/18 02:38:34;;;;;;;12.60;9.27;;;;;;;23.93;69.58;99879.69;4994227;28;20041;-65
2021/08/18 02:41:00;;;;;;;14.73;9.63;;;;;;;24.03;69.24;99886.44;4993087;28;20050;-65
2021/08/18 02:43:25;;;;;;;14.02;9.65;;;;;;;24.13;68.36;99890.53;4994010;28;20028;-67
2021/08/18 02:45:51;;;;;;;11.70;8.48;;;;;;;24.10;68.10;99884.47;4993678;28;20101;-65
2021/08/18 02:48:16;;;;;;;12.07;9.45;;;;;;;23.96;68.42;99904.19;4991331;28;20085;-67
2021/08/18 02:50:42;;;;;;;13.57;8.80;;;;;;;23.63;69.55;99908.56;4992341;28;20050;-69
2021/08/18 02:53:07;;;;;;;13.48;9.75;;;;;;;23.36;69.22;99906.59;4991432;28;20041;-65
2021/08/18 02:55:33;;;;;;;17.08;9.82;;;;;;;23.20;69.03;99914.03;4991480;28;20030;-65
2021/08/18 02:57:58;;;;;;;16.23;10.27;;;;;;;22.92;69.46;99921.66;4991195;28;20109;-67
2021/08/18 03:00:24;;;;;;;16.95;10.45;;;;;;;22.65;70.74;99910.00;4991457;28;20034;-65
2021/08/18 03:02:51;;;;;;;21.70;10.60;;;;;;;22.44;71.48;99909.53;4991197;28;20069;-67
2021/08/18 03:05:17;;;;;;;20.77;10.48;;;;;;;22.25;71.98;99906.41;4991631;28;20038;-70
2021/08/18 03:07:42;;;;;;;16.25;10.65;;;;;;;22.12;72.56;99919.78;4991333;28;20382;-65
2021/08/18 03:10:08;;;;;;;20.83;11.27;;;;;;;22.17;72.44;99917.06;4991327;28;20042;-68
2021/08/18 03:12:34;;;;;;;15.07;10.32;;;;;;;22.03;73.28;99919.97;4990958;28;20030;-67
2021/08/18 03:14:59;;;;;;;19.58;10.75;;;;;;;22.06;73.50;99921.69;4991496;28;20046;-64
2021/08/18 03:17:25;;;;;;;19.40;10.77;;;;;;;22.05;73.13;99919.94;4990814;28;20038;-65
2021/08/18 03:19:50;;;;;;;18.65;10.50;;;;;;;22.01;73.52;99927.00;4992593;28;20035;-67
2021/08/18 03:22:16;;;;;;;27.20;10.90;;;;;;;21.56;75.29;99929.56;4993183;28;20477;-68
2021/08/18 03:24:41;;;;;;;14.10;10.32;;;;;;;21.28;75.79;99909.00;4993483;28;20023;-67
2021/08/18 03:27:08;;;;;;;23.48;11.07;;;;;;;21.55;74.38;99940.94;4991872;28;20433;-68
2021/08/18 03:29:33;;;;;;;17.92;11.73;;;;;;;21.37;75.09;99935.13;4993345;28;20019;-70
2021/08/18 03:31:59;;;;;;;14.85;10.68;;;;;;;21.30;75.58;99941.34;4993359;28;20077;-69
2021/08/18 03:34:24;;;;;;;18.70;10.27;;;;;;;21.31;75.60;99940.47;4993641;28;20034;-70
2021/08/18 03:36:50;;;;;;;17.63;10.38;;;;;;;21.58;74.59;99946.16;4993051;28;20042;-66
2021/08/18 03:39:15;;;;;;;20.00;11.15;;;;;;;21.55;73.37;99918.16;4993588;28;20058;-67
2021/08/18 03:41:41;;;;;;;14.02;11.23;;;;;;;21.89;73.57;99957.00;4992314;28;20037;-66
2021/08/18 03:44:06;;;;;;;15.75;10.40;;;;;;;21.99;73.06;99947.19;4993255;28;20401;-72
2021/08/18 03:46:32;;;;;;;16.73;10.85;;;;;;;21.90;73.02;99919.31;4992960;28;20027;-70
2021/08/18 03:48:57;;;;;;;17.30;10.30;;;;;;;21.93;73.00;99944.69;4993153;28;20499;-66
2021/08/18 03:51:23;;;;;;;19.60;11.05;;;;;;;22.05;72.00;99939.19;4993222;28;20397;-67
2021/08/18 03:53:48;;;;;;;19.58;10.40;;;;;;;22.16;71.15;99943.38;4993226;28;20026;-67
2021/08/18 03:56:14;;;;;;;21.48;11.05;;;;;;;22.23;70.79;99937.09;4992167;28;20097;-67
2021/08/18 03:58:39;;;;;;;16.98;10.43;;;;;;;22.55;69.61;99943.50;4992857;28;20041;-69
2021/08/18 04:01:06;;;;;;;17.92;10.50;;;;;;;22.64;69.24;99942.47;4992138;28;20030;-68
2021/08/18 04:03:33;;;;;;;15.48;10.10;;;;;;;22.82;68.54;99946.44;4992790;28;20469;-67
2021/08/18 04:05:58;;;;;;;16.70;10.23;;;;;;;;;;4991229;28;20084;-69
2021/08/18 04:08:24;;;;;;;15.95;10.85;;;;;;;;;;4995060;28;20121;-69
2021/08/18 04:10:49;;;;;;;14.20;10.68;;;;;;;22.91;68.94;99951.50;4997091;28;20042;-69
2021/08/18 04:13:15;;;;;;;21.90;11.10;;;;;;;22.68;70.12;99952.88;4996788;28;20031;-66
2021/08/18 04:15:41;;;;;;;23.02;10.90;;;;;;;22.30;71.79;99960.59;4996460;28;20030;-71
2021/08/18 04:18:08;;;;;;;20.40;10.75;;;;;;;22.21;72.29;99965.22;4996117;28;20057;-68
2021/08/18 04:20:34;;;;;;;30.17;11.20;;;;;;;21.97;72.85;99968.25;4996388;28;20030;-69
2021/08/18 04:23:00;;;;;;;20.73;11.23;;;;;;;21.65;73.53;99968.81;4996630;28;20105;-68
2021/08/18 04:25:27;;;;;;;23.02;11.63;;;;;;;21.45;74.69;99975.22;4996294;28;20100;-66
2021/08/18 04:27:53;;;;;;;28.95;12.18;;;;;;;21.25;74.93;99935.31;4996445;28;20401;-67
2021/08/18 04:30:19;;;;;;;35.20;13.88;;;;;;;21.30;75.77;99975.47;4996415;28;20461;-69
2021/08/18 04:32:44;;;;;;;35.55;21.25;;;;;;;21.25;76.28;99956.31;4996179;28;20026;-66
2021/08/18 04:35:12;;;;;;;25.75;16.20;;;;;;;21.26;76.80;99976.41;4996663;28;20496;-67
2021/08/18 04:37:37;;;;;;;19.20;12.63;;;;;;;21.46;76.10;99979.59;4996627;28;20077;-70
2021/08/18 04:40:05;;;;;;;25.23;12.40;;;;;;;21.33;77.23;99986.81;4996349;28;20394;-68
2021/08/18 04:42:35;;;;;;;22.55;11.50;;;;;;;21.17;78.24;99983.53;4995295;28;20137;-67
2021/08/18 04:45:02;;;;;;;18.65;11.80;;;;;;;21.26;78.40;99979.03;4995974;28;20077;-67
2021/08/18 04:47:28;;;;;;;21.50;11.68;;;;;;;21.47;77.77;99985.69;4996183;28;20026;-66
2021/08/18 04:49:53;;;;;;;17.63;10.93;;;;;;;21.57;76.63;99986.47;4995339;28;20363;-67
2021/08/18 04:52:18;;;;;;;21.50;10.85;;;;;;;21.48;77.62;99979.56;4995825;28;20035;-66
2021/08/18 04:54:44;;;;;;;15.05;10.88;;;;;;;21.45;77.72;99990.13;4995802;28;20029;-67
2021/08/18 04:57:09;;;;;;;11.13;9.70;;;;;;;21.50;76.38;99978.66;4974070;28;20501;-68
2021/08/18 04:59:35;;;;;;;13.07;10.80;;;;;;;21.72;75.53;99994.09;4974473;28;20378;-69
2021/08/18 05:02:00;;;;;;;16.02;12.02;;;;;;;21.95;74.61;99996.31;4974360;28;20540;-69
2021/08/18 05:04:25;;;;;;;13.90;11.25;;;;;;;21.79;75.04;100000.13;4974289;28;20031;-69
2021/08/18 05:06:51;;;;;;;16.70;11.82;;;;;;;21.74;75.21;99994.06;4974277;28;20382;-67
2021/08/18 05:09:16;;;;;;;16.45;12.10;;;;;;;21.62;76.02;99971.47;4973998;28;20445;-72
2021/08/18 05:11:42;;;;;;;15.35;11.05;;;;;;;21.98;74.91;100000.66;4973824;28;20472;-69
2021/08/18 05:14:07;;;;;;;11.25;10.05;;;;;;;21.61;75.02;99968.00;4973974;28;20489;-69
2021/08/18 05:16:32;;;;;;;14.85;10.32;;;;;;;21.74;76.91;100007.22;4973957;28;20185;-68
2021/08/18 05:18:58;;;;;;;18.75;10.90;;;;;;;21.92;76.77;100016.53;4972890;28;20520;-69
2021/08/18 05:21:23;;;;;;;14.25;11.10;;;;;;;21.78;76.81;99987.88;4973857;28;20031;-71
2021/08/18 05:23:49;;;;;;;12.48;9.88;;;;;;;22.20;75.85;100022.16;4974059;28;20066;-67
2021/08/18 05:26:14;;;;;;;15.23;10.85;;;;;;;22.40;76.25;100023.59;4973762;28;20061;-69
2021/08/18 05:28:40;;;;;;;12.43;9.40;;;;;;;22.62;74.54;100022.28;4989266;28;20034;-67
2021/08/18 05:31:05;;;;;;;24.45;11.43;;;;;;;22.87;75.52;100021.78;4995403;28;20042;-68
2021/08/18 05:33:30;;;;;;;16.67;11.13;;;;;;;22.93;75.52;100016.38;4995375;28;20034;-69
2021/08/18 05:35:56;;;;;;;14.98;9.70;;;;;;;23.11;74.28;100016.88;4995011;28;20445;-69
2021/08/18 05:38:22;;;;;;;15.43;10.23;;;;;;;23.25;73.99;100020.13;4995279;28;20030;-68
2021/08/18 05:40:47;;;;;;;14.05;9.02;;;;;;;23.43;73.21;100024.06;4995899;28;20516;-68
2021/08/18 05:43:16;;;;;;;15.68;9.60;;;;;;;23.62;72.92;100018.38;4994147;28;20026;-66
2021/08/18 05:45:41;;;;;;;15.60;9.70;;;;;;;23.75;72.69;100013.66;4994883;28;20031;-69
2021/08/18 05:48:07;;;;;;;12.25;9.45;;;;;;;23.93;72.65;100027.34;4994951;28;20488;-68
2021/08/18 05:50:32;;;;;;;12.90;8.88;;;;;;;24.05;72.50;100032.28;4993192;28;20030;-68
2021/08/18 05:52:57;;;;;;;11.60;9.00;;;;;;;23.97;71.77;100014.00;4994962;28;20118;-69
2021/08/18 05:55:23;;;;;;;17.50;10.05;;;;;;;24.12;71.95;100033.00;4994639;28;20050;-68
2021/08/18 05:57:48;;;;;;;11.65;9.73;;;;;;;24.05;71.23;100012.06;4994863;28;20023;-69
2021/08/18 06:00:15;;;;;;;16.27;10.05;;;;;;;24.39;72.26;100042.78;4993257;28;20034;-69
2021/08/18 06:02:40;;;;;;;15.43;9.18;;;;;;;24.44;71.86;100039.19;4977743;28;20449;-68
2021/08/18 06:05:06;;;;;;;13.45;9.32;;;;;;;24.54;71.98;100043.28;4994724;28;20035;-67
2021/08/18 06:07:31;;;;;;;10.93;8.95;;;;;;;24.64;71.05;100054.47;4993472;28;20061;-70
2021/08/18 06:09:57;;;;;;;12.75;8.98;;;;;;;24.71;70.40;100041.06;4994612;28;20081;-71
2021/08/18 06:12:22;;;;;;;15.10;8.85;;;;;;;24.88;69.71;100045.00;4992363;28;20034;-69
2021/08/18 06:14:48;;;;;;;11.95;9.13;;;;;;;24.71;69.36;100011.16;4992459;28;20038;-69
2021/08/18 06:17:13;;;;;;;16.30;9.25;;;;;;;24.83;69.65;100007.31;4992055;28;20101;-68
2021/08/18 06:19:39;;;;;;;13.07;9.82;;;;;;;25.10;68.71;100052.31;4992155;28;20476;-69
2021/08/18 06:22:04;;;;;;;16.92;9.90;;;;;;;25.14;69.00;100049.50;4992231;28;20042;-69
2021/08/18 06:24:40;;;;;;;17.27;10.27;;;;;;;25.20;70.01;100051.09;4991785;28;20041;-67
2021/08/18 06:27:08;;;;;;;21.40;10.00;;;;;;;25.18;69.24;100039.72;4991834;28;20042;-69
2021/08/18 06:29:34;;;;;;;16.77;9.52;;;;;;;25.14;69.31;100040.72;4992194;28;20034;-69
2021/08/18 06:32:01;;;;;;;14.55;10.10;;;;;;;25.17;68.19;100048.53;4991688;28;20080;-68
2021/08/18 06:34:26;;;;;;;17.88;9.82;;;;;;;25.29;67.93;100034.97;4991788;28;20117;-69
2021/08/18 06:36:52;;;;;;;16.33;9.93;;;;;;;25.38;68.53;100027.69;4991548;28;20409;-69
2021/08/18 06:39:18;;;;;;;13.48;9.38;;;;;;;25.36;69.78;100033.00;4991611;28;20097;-66
2021/08/18 06:41:43;;;;;;;13.18;9.00;;;;;;;25.39;68.80;100032.06;4991771;28;20049;-68
2021/08/18 06:44:08;;;;;;;15.98;8.95;;;;;;;25.39;67.94;100027.66;4993613;28;20049;-69
2021/08/18 06:46:34;;;;;;;13.52;8.93;;;;;;;25.52;67.38;100031.63;4994026;28;20041;-68
2021/08/18 06:48:59;;;;;;;11.73;8.80;;;;;;;25.64;66.55;100018.94;4952970;29;20050;-68
2021/08/18 06:51:25;;;;;;;11.93;8.70;;;;;;;25.73;66.21;100012.47;4953192;29;20047;-68
2021/08/18 06:53:50;;;;;;;19.63;10.07;;;;;;;25.80;65.74;100006.06;4953110;29;20043;-70
2021/08/18 06:56:16;;;;;;;14.60;9.68;;;;;;;25.97;65.90;100019.59;4952870;29;20114;-68
2021/08/18 06:58:41;;;;;;;14.57;9.55;;;;;;;25.91;65.32;100030.38;4953087;29;20043;-68
2021/08/18 07:01:07;;;;;;;14.38;9.15;;;;;;;25.93;64.58;100025.91;4952522;29;20031;-72
2021/08/18 07:03:33;;;;;;;14.05;9.63;;;;;;;25.74;64.70;100016.84;4952874;29;20048;-68
2021/08/18 07:05:58;;;;;;;13.35;9.25;;;;;;;25.40;66.59;100032.03;4952465;29;20027;-68
2021/08/18 07:08:24;;;;;;;20.33;10.57;;;;;;;25.17;66.64;100003.63;4952370;29;20047;-68
2021/08/18 07:10:51;;;;;;;15.65;10.35;;;;;;;25.07;68.01;100026.81;4952574;29;20031;-68
2021/08/18 07:13:17;;;;;;;14.30;9.57;;;;;;;25.33;67.12;100026.03;4952661;29;20046;-68
2021/08/18 07:15:42;;;;;;;16.67;10.15;;;;;;;25.60;66.98;100015.53;4952593;29;20039;-68
2021/08/18 07:18:08;;;;;;;16.20;10.15;;;;;;;25.40;66.35;100032.03;4952594;29;20478;-66
2021/08/18 07:20:33;;;;;;;12.48;9.75;;;;;;;25.40;65.88;100002.09;4982747;28;20038;-67
2021/08/18 07:22:59;;;;;;;15.68;9.40;;;;;;;25.86;64.56;100029.66;4993736;28;20027;-69
2021/08/18 07:25:25;;;;;;;14.95;10.23;;;;;;;25.77;64.25;100020.25;4993766;28;20050;-68
2021/08/18 07:27:52;;;;;;;14.38;10.57;;;;;;;25.73;64.45;100023.91;4993345;28;20026;-67
2021/08/18 07:30:17;;;;;;;15.82;8.18;;;;;;;25.98;62.14;100016.03;4992412;28;20026;-68
2021/08/18 07:32:43;;;;;;;13.95;7.85;;;;;;;25.99;61.99;99999.25;4993427;28;20385;-66
2021/08/18 07:35:09;;;;;;;13.35;8.13;;;;;;;26.20;59.14;100017.94;4993108;28;20125;-66
2021/08/18 07:37:34;;;;;;;11.05;8.13;;;;;;;26.25;60.10;100015.16;4993081;28;20437;-66
2021/08/18 07:40:00;;;;;;;12.70;8.00;;;;;;;26.43;58.66;100018.91;4993383;28;20057;-68
2021/08/18 07:42:26;;;;;;;12.02;7.80;;;;;;;26.43;58.17;100013.59;4994130;28;20042;-68
2021/08/18 07:44:51;;;;;;;13.70;7.35;;;;;;;26.48;58.19;100009.00;4997100;28;20041;-68
2021/08/18 07:47:17;;;;;;;10.65;7.47;;;;;;;26.51;57.73;100002.75;4995757;28;20056;-70
2021/08/18 07:49:43;;;;;;;15.95;7.88;;;;;;;26.47;58.15;100016.09;4996644;28;20027;-67
2021/08/18 07:52:08;;;;;;;14.38;7.82;;;;;;;26.51;58.60;100011.56;4995663;28;20042;-69
2021/08/18 07:54:34;;;;;;;13.95;7.97;;;;;;;26.31;60.21;100004.34;4996938;28;20092;-68
2021/08/18 07:57:00;;;;;;;14.75;7.82;;;;;;;26.39;58.02;100012.00;4996810;28;20105;-67
2021/08/18 07:59:26;;;;;;;11.95;6.90;;;;;;;26.51;57.13;99995.66;4996805;28;20038;-68
2021/08/18 08:01:51;;;;;;;13.48;7.63;;;;;;;26.46;57.13;100005.56;4996747;28;20539;-68
2021/08/18 08:04:17;;;;;;;14.18;7.70;;;;;;;26.44;57.41;99991.50;4996701;28;20087;-69
2021/08/18 08:06:44;;;;;;;15.55;7.82;;;;;;;26.37;57.67;100004.13;4997223;28;20026;-72
2021/08/18 08:09:10;;;;;;;12.23;7.18;;;;;;;26.41;57.75;99989.00;4997103;28;20035;-69
2021/08/18 08:11:35;;;;;;;11.75;7.93;;;;;;;26.23;60.41;99959.66;4996819;28;20034;-67
2021/08/18 08:14:01;;;;;;;11.82;7.38;;;;;;;26.51;58.82;100000.97;4996559;28;20397;-69
2021/08/18 08:16:26;;;;;;;10.13;7.65;;;;;;;26.72;59.62;100001.94;4996785;28;20385;-69
2021/08/18 08:18:52;;;;;;;15.20;7.43;;;;;;;26.65;58.72;99966.03;4996732;28;20048;-67
2021/08/18 08:21:17;;;;;;;13.40;7.75;;;;;;;27.12;56.45;99999.59;4996674;28;20030;-67
2021/08/18 08:23:43;;;;;;;11.00;7.78;;;;;;;27.18;55.12;99990.50;4996642;28;20035;-69
2021/08/18 08:26:08;;;;;;;14.63;7.45;;;;;;;27.23;54.85;99993.88;4995609;28;20036;-65
2021/08/18 08:28:34;;;;;;;10.88;7.25;;;;;;;27.30;55.87;99995.31;4996219;28;20113;-68
2021/08/18 08:30:59;;;;;;;13.98;7.38;;;;;;;27.24;54.22;99992.91;4996509;28;20033;-69
2021/08/18 08:33:25;;;;;;;13.52;7.55;;;;;;;27.14;54.70;99997.72;4996213;28;20041;-67
2021/08/18 08:35:51;;;;;;;12.05;7.18;;;;;;;27.44;55.42;99985.06;4996186;28;20080;-69
2021/08/18 08:38:17;;;;;;;9.82;7.70;;;;;;;27.72;52.43;99991.03;4996079;28;20034;-69
2021/08/18 08:40:46;;;;;;;11.05;7.13;;;;;;;27.74;55.32;99987.38;4995273;28;20054;-69
2021/08/18 08:43:12;;;;;;;;;;;;;;;27.65;53.31;99984.25;4996491;28;20535;-71
2021/08/18 08:45:42;;;;;;;12.32;7.78;;;;;;;27.54;52.56;99960.81;4995740;28;19945;-67
2021/08/18 08:48:07;;;;;;;;;;;;;;;27.60;53.76;99982.66;4996565;28;20492;-66
2021/08/18 08:50:32;;;;;;;10.48;7.88;;;;;;;27.89;52.36;99977.06;4995913;28;19914;-67
2021/08/18 08:52:58;;;;;;;11.40;7.30;;;;;;;28.15;50.88;99956.47;4995716;28;20037;-69
2021/08/18 08:55:23;;;;;;;11.95;7.63;;;;;;;28.41;51.89;99972.13;4995828;28;20553;-68
2021/08/18 08:57:57;;;;;;;14.60;7.25;;;;;;;28.51;50.69;99977.00;4994495;28;20396;-68
2021/08/18 09:00:23;;;;;;;13.48;7.43;;;;;;;28.53;50.67;99976.00;4961737;28;20096;-68
2021/08/18 09:03:07;;;;;;;10.57;7.65;;;;;;;28.47;49.70;99956.84;4994645;28;20018;-69
2021/08/18 09:05:32;;;;;;;11.05;6.82;;;;;;;28.16;49.32;99926.38;4995901;28;20104;-68
2021/08/18 09:07:59;;;;;;;13.65;8.25;;;;;;;28.57;50.08;99959.00;4995142;28;20562;-69
2021/08/18 09:10:25;;;;;;;9.73;7.40;;;;;;;28.81;48.17;99950.84;4995517;28;20053;-69
2021/08/18 09:12:51;;;;;;;13.70;6.72;;;;;;;28.86;46.14;99921.38;4994187;28;20481;-69
2021/08/18 09:15:20;;;;;;;10.85;7.35;;;;;;;29.13;45.60;99945.75;4994355;28;20022;-69
2021/08/18 09:17:48;;;;;;;13.80;7.67;;;;;;;29.45;47.05;99940.69;4994158;28;20221;-72
2021/08/18 09:20:14;;;;;;;13.57;7.78;;;;;;;29.54;46.44;99945.53;4994097;28;20493;-69
2021/08/18 09:22:49;;;;;;;13.05;6.53;;;;;;;29.81;43.65;99936.25;4995266;28;20034;-66
2021/08/18 09:25:19;;;;;;;11.25;6.88;;;;;;;30.06;44.43;99937.63;4995245;28;20030;-70
2021/08/18 09:27:52;;;;;;;10.70;6.70;;;;;;;30.25;42.95;99929.53;4995494;28;20109;-72
2021/08/18 09:30:22;;;;;;;10.90;7.40;;;;;;;30.33;45.64;99932.63;4993801;28;20481;-69
2021/08/18 09:32:48;;;;;;;20.42;11.50;;;;;;;30.43;43.62;99923.22;4995390;28;20026;-71
2021/08/18 09:35:17;;;;;;;19.08;8.30;;;;;;;30.30;42.87;99922.16;4995610;28;20033;-74
2021/08/18 09:37:55;;;;;;;12.57;8.90;;;;;;;30.53;42.78;99930.72;4994764;28;20482;-70
2021/08/18 09:40:24;;;;;;;11.55;8.32;;;;;;;30.34;43.72;99935.22;4995527;28;20057;-66
2021/08/18 09:42:50;;;;;;;12.20;7.05;;;;;;;30.44;44.03;99919.56;4994727;28;20030;-70
2021/08/18 09:45:25;;;;;;;13.98;7.93;;;;;;;30.85;44.62;99928.06;4994464;28;20034;-68
2021/08/18 09:48:04;;;;;;;13.48;8.18;;;;;;;30.98;42.78;99934.44;4994890;28;20053;-69
2021/08/18 09:50:32;;;;;;;9.68;6.95;;;;;;;31.06;40.87;99921.50;4995076;28;20033;-68
2021/08/18 09:53:07;;;;;;;13.90;6.95;;;;;;;31.09;41.87;99920.50;4994657;28;20033;-67
2021/08/18 09:55:33;;;;;;;14.88;7.70;;;;;;;31.06;43.67;99921.50;4993445;28;20031;-66
2021/08/18 09:57:58;;;;;;;11.23;7.05;;;;;;;31.19;40.91;99915.50;4994967;28;20037;-70
2021/08/18 10:00:44;;;;;;;17.20;7.72;;;;;;;31.24;42.29;99916.06;4995353;28;20022;-68
2021/08/18 10:03:10;;;;;;;17.17;7.72;;;;;;;31.33;43.79;99890.69;4973327;28;20054;-69
2021/08/18 10:05:36;;;;;;;16.42;7.00;;;;;;;31.68;41.09;99912.63;4972391;28;20039;-69
2021/08/18 10:08:02;;;;;;;14.90;8.23;;;;;;;31.65;39.72;99901.28;4973325;28;20109;-67
2021/08/18 10:10:29;;;;;;;10.82;7.13;;;;;;;31.97;40.24;99907.31;4972718;28;20410;-69
2021/08/18 10:12:54;;;;;;;13.73;7.30;;;;;;;32.09;38.33;99908.38;4972726;28;20042;-69
2021/08/18 10:15:20;;;;;;;12.65;6.60;;;;;;;32.07;37.86;99903.09;4973306;28;20039;-70
2021/08/18 10:17:47;;;;;;;13.93;6.85;;;;;;;32.17;39.46;99902.56;4972807;28;20038;-68
2021/08/18 10:20:15;;;;;;;12.68;6.70;;;;;;;32.16;37.86;99898.16;4973052;28;20034;-67
2021/08/18 10:22:40;;;;;;;12.45;6.45;;;;;;;32.16;37.33;99900.84;4956607;28;20030;-72
2021/08/18 10:25:33;;;;;;;12.18;7.18;;;;;;;32.26;37.56;99894.84;4972695;28;20413;-69
2021/08/18 10:27:58;;;;;;;14.60;7.13;;;;;;;32.47;38.44;99878.41;4953173;29;20047;-70
2021/08/18 10:30:26;;;;;;;14.38;6.80;;;;;;;32.74;36.15;99893.63;4953486;29;20039;-69
2021/08/18 10:32:52;;;;;;;12.60;6.25;;;;;;;32.55;36.03;99883.25;4953006;29;20040;-69
2021/08/18 10:35:36;;;;;;;11.23;6.80;;;;;;;32.63;35.03;99888.13;4957055;29;20047;-71
2021/08/18 10:38:27;;;;;;;15.10;7.28;;;;;;;32.75;36.50;99882.00;4956153;29;20525;-69
2021/08/18 10:40:53;;;;;;;12.75;6.90;;;;;;;32.99;38.34;99884.03;4952920;29;20502;-67
2021/08/18 10:43:58;;;;;;;12.00;6.72;;;;;;;33.22;35.06;99887.81;4953432;29;20038;-68
2021/08/18 10:46:24;;;;;;;15.60;6.70;;;;;;;33.32;35.14;99880.94;4953824;29;20035;-70
2021/08/18 10:48:55;;;;;;;9.52;7.25;;;;;;;33.41;36.92;99874.09;4953125;29;20134;-70
2021/08/18 10:51:39;;;;;;;12.55;6.55;;;;;;;33.23;35.58;99866.28;4953244;29;20068;-65
2021/08/18 10:54:28;;;;;;;12.43;6.22;;;;;;;33.31;34.92;99872.97;4937004;29;20038;-69
2021/08/18 10:56:58;;;;;;;12.60;5.90;;;;;;;33.25;34.74;99863.53;4953326;29;20114;-67
2021/08/18 10:59:36;;;;;;;9.68;6.00;;;;;;;32.73;35.26;99849.13;4953345;29;20142;-69
2021/08/18 11:02:07;;;;;;;10.40;6.55;;;;;;;32.97;36.54;99846.66;4937071;29;20469;-69
2021/08/18 11:04:46;;;;;;;9.32;6.25;;;;;;;32.76;35.47;99818.69;4973195;28;20048;-69
2021/08/18 11:07:13;;;;;;;13.20;6.47;;;;;;;33.00;35.79;99838.44;5011471;28;20116;-72
2021/08/18 11:09:50;;;;;;;12.38;6.55;;;;;;;32.92;36.56;99840.78;5010538;28;20025;-69
2021/08/18 11:12:40;;;;;;;9.27;6.60;;;;;;;33.08;34.96;99834.41;5011234;28;20037;-69
2021/08/18 11:15:14;;;;;;;13.23;7.00;;;;;;;33.30;38.57;99840.03;5005272;28;20050;-70
2021/08/18 11:17:42;;;;;;;9.02;6.53;;;;;;;32.85;35.18;99810.94;4993080;28;20034;-68
2021/08/18 11:20:15;;;;;;;11.85;6.47;;;;;;;33.19;34.60;99826.50;4993453;28;20031;-69
2021/08/18 11:22:42;;;;;;;11.63;6.18;;;;;;;33.48;34.85;99829.03;4993439;28;20523;-68